Butare Airport


Codes: HRYI/BTQ
Name: Butare Airport
City: Butare
Country: Rwanda
Elevation: 5801 ft.

Photos at Butare Airport


   Photos courtesy of SpottingLog. You can add your own sightings and photos by signing up for a free trial today.



No photos found.

Weather at Butare Airport


Time (UTC)DescriptionTempratureWindCloud coverageVisibilityPressureHumidity
16-Jun-2024 12:00Overcast Clouds23°C7 mph, SE98%10000m1012hPa51%
16-Jun-2024 15:00Overcast Clouds22°C2 mph, SW99%10000m1012hPa58%
16-Jun-2024 18:00Overcast Clouds18°C2 mph, W100%10000m1015hPa69%
16-Jun-2024 21:00Overcast Clouds17°C2 mph, W100%10000m1015hPa69%
17-Jun-2024 00:00Overcast Clouds17°C2 mph, W100%10000m1014hPa71%
17-Jun-2024 03:00Overcast Clouds16°C0 mph, NE100%10000m1016hPa76%
17-Jun-2024 06:00Overcast Clouds17°C2 mph, W99%10000m1018hPa74%
17-Jun-2024 09:00Light Rain19°C2 mph, SE100%10000m1017hPa68%
17-Jun-2024 12:00Broken Clouds25°C2 mph, E74%10000m1012hPa43%
17-Jun-2024 15:00Overcast Clouds20°C2 mph, E98%10000m1013hPa66%
17-Jun-2024 18:00Broken Clouds16°C4 mph, W82%10000m1016hPa74%
17-Jun-2024 21:00Broken Clouds16°C4 mph, SW83%10000m1017hPa73%
18-Jun-2024 00:00Broken Clouds16°C2 mph, W76%10000m1015hPa69%
18-Jun-2024 03:00Overcast Clouds16°C2 mph, W97%10000m1016hPa66%
18-Jun-2024 06:00Overcast Clouds19°C2 mph, SW97%10000m1017hPa59%
18-Jun-2024 09:00Few Clouds24°C7 mph, SE20%10000m1015hPa41%
18-Jun-2024 12:00Scattered Clouds24°C2 mph, E35%10000m1012hPa44%
18-Jun-2024 15:00Overcast Clouds21°C2 mph, E100%10000m1013hPa59%
18-Jun-2024 18:00Overcast Clouds18°C4 mph, SW96%10000m1015hPa62%
18-Jun-2024 21:00Overcast Clouds18°C2 mph, SW98%10000m1016hPa61%
19-Jun-2024 00:00Broken Clouds15°C2 mph, W83%10000m1015hPa71%
19-Jun-2024 03:00Clear Sky13°C2 mph, W2%10000m1016hPa76%
19-Jun-2024 06:00Few Clouds19°C2 mph, E16%10000m1017hPa59%
19-Jun-2024 09:00Scattered Clouds24°C4 mph, SE34%10000m1015hPa40%
19-Jun-2024 12:00Scattered Clouds26°C4 mph, NE36%10000m1011hPa35%
19-Jun-2024 15:00Broken Clouds22°C2 mph, N52%10000m1012hPa51%
19-Jun-2024 18:00Broken Clouds18°C4 mph, SW51%10000m1014hPa60%
19-Jun-2024 21:00Broken Clouds16°C2 mph, SW54%10000m1016hPa65%
20-Jun-2024 00:00Broken Clouds14°C4 mph, W74%10000m1016hPa72%
20-Jun-2024 03:00Scattered Clouds13°C4 mph, W43%10000m1017hPa73%
20-Jun-2024 06:00Scattered Clouds18°C2 mph, SE48%10000m1018hPa58%
20-Jun-2024 09:00Broken Clouds24°C4 mph, SE76%10000m1016hPa40%
20-Jun-2024 12:00Scattered Clouds26°C4 mph, SE46%10000m1012hPa30%
20-Jun-2024 15:00Overcast Clouds23°C2 mph, N93%10000m1012hPa46%
20-Jun-2024 18:00Overcast Clouds18°C4 mph, W87%10000m1015hPa53%
20-Jun-2024 21:00Broken Clouds17°C2 mph, W76%10000m1017hPa56%
21-Jun-2024 00:00Broken Clouds16°C2 mph, W73%10000m1016hPa59%
21-Jun-2024 03:00Few Clouds13°C2 mph, SW24%10000m1018hPa66%
21-Jun-2024 06:00Few Clouds18°C2 mph, S18%10000m1019hPa55%
21-Jun-2024 09:00Clear Sky24°C4 mph, SE5%10000m1017hPa46%